MC SHIMLA BLOCK LEVEL FORECAST
DISTRICT SHIMLA
Block BASANTPUR
Forecast Date RAIN  (mm) TEMPERATURE HUMIDITY WIND CloudCover(octa)
Max(0C) Min(0C) 0830(%) 1730(%) Speed(kmph) Direction(0)
25-11-2021 0.0 17.2 5.8 43 17 7 71 0
26-11-2021 0.0 16.3 5.7 44 18 7 68 0
27-11-2021 0.0 16.1 4.7 48 21 7 88 0
28-11-2021 0.0 15.1 4.7 50 23 7 68 0
29-11-2021 0.0 15.2 4.8 36 14 8 70 0
Block CHAUHARA
Forecast Date RAIN  (mm) TEMPERATURE HUMIDITY WIND CloudCover(octa)
Max(0C) Min(0C) 0830(%) 1730(%) Speed(kmph) Direction(0)
25-11-2021 0.0 20.3 8.9 43 17 7 71 0
26-11-2021 0.0 19.4 8.9 44 18 7 68 0
27-11-2021 0.0 19.3 7.9 49 21 7 87 0
28-11-2021 0.0 18.2 7.8 51 23 7 68 0
29-11-2021 0.0 18.4 7.9 36 14 8 69 0
Block CHAUPAL
Forecast Date RAIN  (mm) TEMPERATURE HUMIDITY WIND CloudCover(octa)
Max(0C) Min(0C) 0830(%) 1730(%) Speed(kmph) Direction(0)
25-11-2021 0.0 17.2 5.8 44 17 7 111 0
26-11-2021 0.0 16.3 5.7 44 18 7 108 0
27-11-2021 0.0 16.1 4.6 50 21 6 122 0
28-11-2021 0.0 15.0 4.7 52 23 7 59 0
29-11-2021 0.0 15.3 4.9 37 14 8 63 0
Block JUBBAL-KOTKHAI 
Forecast Date RAIN  (mm) TEMPERATURE HUMIDITY WIND CloudCover(octa)
Max(0C) Min(0C) 0830(%) 1730(%) Speed(kmph) Direction(0)
25-11-2021 0.0 18.0 6.6 43 17 7 72 0
26-11-2021 0.0 17.1 6.5 44 18 7 63 0
27-11-2021 0.0 16.9 5.5 50 21 6 88 0
28-11-2021 0.0 15.9 5.6 51 22 7 74 0
29-11-2021 0.0 16.1 5.7 36 14 8 70 0
Block MASHOBRA
Forecast Date RAIN  (mm) TEMPERATURE HUMIDITY WIND CloudCover(octa)
Max(0C) Min(0C) 0830(%) 1730(%) Speed(kmph) Direction(0)
25-11-2021 0.0 20.2 8.8 43 17 7 76 0
26-11-2021 0.0 19.3 8.8 44 18 7 68 0
27-11-2021 0.0 19.1 7.7 49 21 7 88 0
28-11-2021 0.0 18.1 7.7 51 23 7 75 0
29-11-2021 0.0 18.3 7.8 36 14 8 70 0
Block NANKHARI
Forecast Date RAIN  (mm) TEMPERATURE HUMIDITY WIND CloudCover(octa)
Max(0C) Min(0C) 0830(%) 1730(%) Speed(kmph) Direction(0)
25-11-2021 0.0 13.5 2.1 41 16 7 71 0
26-11-2021 0.0 12.4 1.8 42 17 7 68 0
27-11-2021 0.0 12.2 0.9 47 20 7 81 0
28-11-2021 0.0 11.3 0.9 49 22 7 68 0
29-11-2021 0.0 11.5 1.0 34 13 8 70 0
Block NARKANDA
Forecast Date RAIN  (mm) TEMPERATURE HUMIDITY WIND CloudCover(octa)
Max(0C) Min(0C) 0830(%) 1730(%) Speed(kmph) Direction(0)
25-11-2021 0.0 15.5 4.1 42 16 7 71 0
26-11-2021 0.0 14.4 3.9 43 18 7 68 0
27-11-2021 0.0 14.3 3.0 48 20 7 88 0
28-11-2021 0.0 13.3 3.0 50 22 7 73 0
29-11-2021 0.0 13.5 3.1 35 14 8 70 0
Block RAMPUR
Forecast Date RAIN  (mm) TEMPERATURE HUMIDITY WIND CloudCover(octa)
Max(0C) Min(0C) 0830(%) 1730(%) Speed(kmph) Direction(0)
25-11-2021 0.0 27.9 16.5 40 16 7 63 0
26-11-2021 0.0 26.7 16.3 42 17 8 62 0
27-11-2021 0.0 26.7 15.4 46 19 7 80 0
28-11-2021 0.0 25.7 15.3 47 21 7 61 0
29-11-2021 0.0 25.9 15.4 33 13 8 63 0
Block ROHRU
Forecast Date RAIN  (mm) TEMPERATURE HUMIDITY WIND CloudCover(octa)
Max(0C) Min(0C) 0830(%) 1730(%) Speed(kmph) Direction(0)
25-11-2021 0.0 26.0 14.6 42 16 7 65 0
26-11-2021 0.0 25.0 14.4 43 18 8 62 0
27-11-2021 0.0 24.8 13.4 48 20 7 81 0
28-11-2021 0.0 23.9 13.5 50 22 7 68 0
29-11-2021 0.0 24.1 13.6 35 14 8 70 0
Block THEOG
Forecast Date RAIN  (mm) TEMPERATURE HUMIDITY WIND CloudCover(octa)
Max(0C) Min(0C) 0830(%) 1730(%) Speed(kmph) Direction(0)
25-11-2021 0.0 17.1 5.7 43 17 7 77 0
26-11-2021 0.0 16.2 5.6 44 18 7 68 0
27-11-2021 0.0 16.0 4.6 49 21 7 88 0
28-11-2021 0.0 15.0 4.7 51 23 7 75 0
29-11-2021 0.0 15.2 4.7 36 14 8 70 0